Time;durP1;ratioP1;P1;durP2;ratioP2;P2;SDS_P1;SDS_P2;PMS_P1;PMS_P2;Temp;Humidity;BMP_temperature;BMP_pressure;BME280_temperature;BME280_humidity;BME280_pressure;Samples;Min_cycle;Max_cycle;Signal;HPM_P1;HPM_P2
2023/03/07 00:00:08;;;;;;;14.60;7.93;;;;;;;2.92;81.96;97014.06;5053463;28;20219;-81
2023/03/07 00:02:35;;;;;;;10.60;7.63;;;;;;;2.87;81.85;97006.50;5053685;28;20211;-81
2023/03/07 00:05:01;;;;;;;12.97;8.17;;;;;;;2.92;81.71;97009.69;5053595;28;20585;-81
2023/03/07 00:07:28;;;;;;;13.17;8.43;;;;;;;2.91;81.95;97013.25;5052595;28;20230;-81
2023/03/07 00:09:55;;;;;;;13.43;8.73;;;;;;;2.90;81.79;97011.56;5053600;28;20245;-81
2023/03/07 00:12:21;;;;;;;11.67;7.73;;;;;;;2.90;81.32;97013.31;5053342;28;20589;-81
2023/03/07 00:14:49;;;;;;;13.30;8.17;;;;;;;2.88;81.49;97021.22;5053393;28;20235;-81
2023/03/07 00:17:16;;;;;;;14.20;7.83;;;;;;;2.86;81.64;97015.25;5052955;28;20238;-82
2023/03/07 00:19:42;;;;;;;11.83;7.77;;;;;;;2.84;81.58;97017.13;5053407;28;20210;-81
2023/03/07 00:22:09;;;;;;;13.80;8.03;;;;;;;2.82;81.72;97012.91;5053286;28;20220;-79
2023/03/07 00:24:35;;;;;;;13.07;7.67;;;;;;;2.80;81.94;97006.94;5053244;28;20210;-82
2023/03/07 00:27:02;;;;;;;14.10;8.77;;;;;;;2.77;82.64;97005.34;5052662;28;20334;-81
2023/03/07 00:29:29;;;;;;;12.67;7.53;;;;;;;2.83;82.69;97006.78;5052885;28;20237;-81
2023/03/07 00:31:57;;;;;;;11.63;7.60;;;;;;;2.79;82.71;97003.50;5053055;28;20212;-81
2023/03/07 00:34:23;;;;;;;12.97;7.60;;;;;;;2.85;82.58;97003.16;5053076;28;20241;-80
2023/03/07 00:36:50;;;;;;;11.80;7.97;;;;;;;2.92;82.45;97003.63;5052648;28;20234;-80
2023/03/07 00:39:16;;;;;;;12.93;8.50;;;;;;;2.96;81.62;97005.16;5052724;28;20229;-80
2023/03/07 00:41:43;;;;;;;11.97;7.97;;;;;;;2.94;81.35;97002.63;5052690;28;20236;-80
2023/03/07 00:44:09;;;;;;;12.30;7.80;;;;;;;3.00;81.26;96991.81;5052856;28;20211;-80
2023/03/07 00:46:35;;;;;;;11.97;7.80;;;;;;;3.02;81.24;96979.56;5072340;22;20227;-78
2023/03/07 00:49:03;;;;;;;14.40;7.77;;;;;;;3.01;81.24;96983.06;5071396;28;20224;-78
2023/03/07 00:51:30;;;;;;;13.30;8.23;;;;;;;3.04;81.15;96967.25;5071513;28;20209;-81
2023/03/07 00:53:56;;;;;;;13.57;7.47;;;;;;;3.09;80.62;96970.44;5071444;28;20218;-78
2023/03/07 00:56:25;;;;;;;11.87;7.50;;;;;;;3.09;79.85;96960.00;5070627;28;20261;-78
2023/03/07 00:58:52;;;;;;;12.17;7.60;;;;;;;3.11;79.19;96958.13;5071233;28;20222;-80
2023/03/07 01:01:20;;;;;;;14.97;8.57;;;;;;;3.12;79.46;96959.78;5071293;28;20549;-79
2023/03/07 01:03:48;;;;;;;12.27;7.97;;;;;;;3.15;78.97;96958.78;5071284;28;20212;-79
2023/03/07 01:06:18;;;;;;;12.83;6.80;;;;;;;3.09;79.84;96959.13;5070796;28;20305;-78
2023/03/07 01:08:45;;;;;;;11.90;7.40;;;;;;;3.05;80.22;96960.25;5071016;28;20210;-79
2023/03/07 01:11:12;;;;;;;14.70;7.70;;;;;;;3.07;80.30;96966.22;5070875;28;20702;-79
2023/03/07 01:13:39;;;;;;;11.43;7.43;;;;;;;3.05;80.43;96968.91;5071192;28;20211;-79
2023/03/07 01:16:07;;;;;;;12.20;7.80;;;;;;;3.08;80.47;96973.97;5070806;28;20580;-78
2023/03/07 01:18:34;;;;;;;14.73;8.20;;;;;;;3.08;80.21;96962.69;5071093;28;20336;-78
2023/03/07 01:21:00;;;;;;;11.93;7.97;;;;;;;3.09;79.83;96964.34;5071055;28;20217;-79
2023/03/07 01:23:28;;;;;;;15.40;7.70;;;;;;;3.13;78.90;96955.44;5070762;28;20708;-77
2023/03/07 01:25:55;;;;;;;13.50;7.73;;;;;;;3.12;78.69;96956.38;5070678;28;20703;-79
2023/03/07 01:28:21;;;;;;;11.47;7.30;;;;;;;3.05;78.90;96948.03;5070481;28;20209;-77
2023/03/07 01:30:56;;;;;;;11.67;7.37;;;;;;;3.01;79.42;96954.34;5070319;28;20212;-79
2023/03/07 01:33:23;;;;;;;12.37;7.90;;;;;;;3.00;78.56;96949.25;5070663;28;20532;-77
2023/03/07 01:35:49;;;;;;;12.00;7.67;;;;;;;3.04;78.39;96951.59;5070243;28;20298;-77
2023/03/07 01:38:16;;;;;;;10.93;7.13;;;;;;;3.02;78.62;96943.00;5070370;28;20694;-78
2023/03/07 01:40:44;;;;;;;12.93;7.37;;;;;;;3.05;78.15;96942.81;5070662;28;20240;-78
2023/03/07 01:43:25;;;;;;;11.43;7.23;;;;;;;3.14;77.14;96925.78;5070768;28;20208;-78
2023/03/07 01:46:48;;;;;;;12.73;7.17;;;;;;;3.11;76.83;96925.97;5033484;28;1050304;-77
2023/03/07 01:49:19;;;;;;;13.53;8.00;;;;;;;3.11;75.79;96916.34;4994581;28;20303;-77
2023/03/07 01:51:49;;;;;;;11.57;7.17;;;;;;;3.16;75.33;96919.53;5057964;28;20655;-79
2023/03/07 01:54:18;;;;;;;11.93;6.70;;;;;;;3.16;75.62;96919.53;5071345;28;20296;-77
2023/03/07 01:56:47;;;;;;;12.27;7.60;;;;;;;3.20;75.24;96912.38;5070505;28;20261;-78
2023/03/07 01:59:17;;;;;;;12.90;6.73;;;;;;;3.22;74.83;96906.13;5070596;28;20214;-78
2023/03/07 02:01:44;;;;;;;9.43;6.80;;;;;;;3.23;74.62;96899.97;5068135;28;20205;-78
2023/03/07 02:04:15;;;;;;;11.37;6.93;;;;;;;3.18;74.59;96907.22;5069209;28;20203;-78
2023/03/07 02:06:42;;;;;;;11.03;7.07;;;;;;;3.13;75.52;96905.84;5070662;28;20596;-78
2023/03/07 02:09:14;;;;;;;12.60;6.80;;;;;;;3.13;75.10;96903.22;5071060;28;20213;-78
2023/03/07 02:11:43;;;;;;;11.07;7.03;;;;;;;3.10;75.70;96904.25;5071048;28;20311;-78
2023/03/07 02:14:11;;;;;;;11.80;7.10;;;;;;;3.11;75.37;96890.25;5070864;28;20233;-78
2023/03/07 02:16:38;;;;;;;11.67;7.53;;;;;;;3.10;74.87;96891.19;5070590;28;20238;-78
2023/03/07 02:19:15;;;;;;;12.10;7.57;;;;;;;3.12;74.84;96896.34;5070787;28;20207;-78
2023/03/07 02:21:48;;;;;;;13.47;6.77;;;;;;;3.15;74.75;96885.69;5070746;28;20230;-78
2023/03/07 02:24:22;;;;;;;12.00;7.20;;;;;;;3.12;75.07;96893.72;5070923;28;20691;-78
2023/03/07 02:26:52;;;;;;;10.30;6.50;;;;;;;3.17;74.76;96899.50;5070633;28;20227;-78
2023/03/07 02:29:19;;;;;;;10.87;7.17;;;;;;;3.21;74.73;96885.31;5073450;28;20214;-78
2023/03/07 02:31:45;;;;;;;11.73;7.50;;;;;;;3.22;74.32;96885.25;5077256;28;20312;-78
2023/03/07 02:34:24;;;;;;;10.43;7.17;;;;;;;3.24;74.47;96883.38;5077194;28;20202;-78
2023/03/07 02:36:54;;;;;;;12.07;7.43;;;;;;;3.28;74.32;96879.66;5076888;28;20234;-78
2023/03/07 02:39:23;;;;;;;10.87;7.53;;;;;;;3.26;74.19;96876.31;5077382;28;20223;-78
2023/03/07 02:41:53;;;;;;;9.77;6.60;;;;;;;3.28;73.61;96863.13;5077123;28;20741;-78
2023/03/07 02:44:20;;;;;;;11.33;7.10;;;;;;;3.24;73.76;96859.88;5077237;28;20221;-78
2023/03/07 02:46:47;;;;;;;12.73;7.07;;;;;;;3.21;74.24;96870.50;5076637;28;20735;-78
2023/03/07 02:49:13;;;;;;;11.87;7.03;;;;;;;3.24;74.03;96865.09;5077428;28;20225;-79
2023/03/07 02:51:40;;;;;;;9.87;6.77;;;;;;;3.20;73.98;96853.19;5077155;28;20718;-79
2023/03/07 02:54:07;;;;;;;11.00;6.40;;;;;;;3.19;74.36;96858.50;5077080;28;20213;-79
2023/03/07 02:56:34;;;;;;;12.17;7.40;;;;;;;3.26;73.94;96851.97;5076661;28;20233;-79
2023/03/07 02:59:02;;;;;;;11.70;7.60;;;;;;;3.21;73.96;96847.03;5077292;28;20593;-79
2023/03/07 03:01:28;;;;;;;10.60;7.27;;;;;;;3.10;74.28;96845.97;5076935;28;20217;-78
2023/03/07 03:03:55;;;;;;;10.77;6.80;;;;;;;3.14;74.43;96853.53;5077015;28;20209;-79
2023/03/07 03:06:22;;;;;;;12.63;7.33;;;;;;;3.16;73.85;96843.00;5076741;28;20712;-78
2023/03/07 03:08:48;;;;;;;10.60;7.40;;;;;;;3.15;74.03;96843.94;5077063;28;20213;-78
2023/03/07 03:11:15;;;;;;;9.50;6.97;;;;;;;3.18;73.72;96844.59;5076985;28;20241;-79
2023/03/07 03:13:41;;;;;;;9.87;7.13;;;;;;;3.16;74.20;96843.84;5077157;28;20207;-78
2023/03/07 03:16:09;;;;;;;11.47;7.47;;;;;;;3.16;74.35;96851.69;5076751;28;20233;-78
2023/03/07 03:18:37;;;;;;;10.50;6.70;;;;;;;3.17;73.81;96836.88;5076907;28;20216;-78
2023/03/07 03:21:07;;;;;;;11.47;7.37;;;;;;;3.25;74.17;96835.44;5076976;28;20209;-78
2023/03/07 03:23:34;;;;;;;13.10;7.57;;;;;;;3.24;73.83;96833.78;5076912;28;20673;-78
2023/03/07 03:26:03;;;;;;;11.43;7.13;;;;;;;3.27;73.98;96844.03;5076971;28;20236;-78
2023/03/07 03:28:30;;;;;;;10.43;7.13;;;;;;;3.22;74.00;96840.88;5076599;28;20267;-78
2023/03/07 03:30:58;;;;;;;10.00;6.77;;;;;;;3.19;74.16;96841.03;5076957;28;20210;-78
2023/03/07 03:33:27;;;;;;;11.17;7.17;;;;;;;3.28;74.10;96835.28;5076942;28;20210;-78
2023/03/07 03:35:53;;;;;;;10.87;7.40;;;;;;;3.28;73.93;96837.88;5076500;28;20262;-78
2023/03/07 03:38:20;;;;;;;12.10;7.03;;;;;;;3.32;73.78;96835.91;5076570;28;20208;-77
2023/03/07 03:40:46;;;;;;;11.10;7.13;;;;;;;3.41;73.88;96825.75;5074161;28;20219;-77
2023/03/07 03:43:12;;;;;;;11.47;7.03;;;;;;;3.36;73.43;96829.59;5073804;28;20245;-77
2023/03/07 03:45:39;;;;;;;11.50;7.00;;;;;;;3.38;73.67;96828.56;5073614;28;20212;-77
2023/03/07 03:48:06;;;;;;;10.90;7.00;;;;;;;3.41;73.41;96830.97;5073156;28;20222;-77
2023/03/07 03:50:34;;;;;;;12.33;7.97;;;;;;;3.41;73.16;96823.13;5073543;28;20209;-77
2023/03/07 03:53:01;;;;;;;9.97;6.70;;;;;;;3.46;73.16;96826.31;5073440;28;20204;-77
2023/03/07 03:55:27;;;;;;;13.53;7.40;;;;;;;3.45;73.32;96823.78;5073165;28;20247;-77
2023/03/07 03:57:54;;;;;;;11.70;8.07;;;;;;;3.44;73.02;96815.13;5073268;28;20258;-77
2023/03/07 04:00:21;;;;;;;12.87;7.40;;;;;;;3.38;73.35;96814.66;5073111;28;20214;-78
2023/03/07 04:02:47;;;;;;;9.43;6.83;;;;;;;3.27;73.61;96812.72;5073311;28;20210;-76
2023/03/07 04:05:14;;;;;;;11.13;7.47;;;;;;;3.16;74.30;96820.34;5073039;28;20215;-77
2023/03/07 04:07:41;;;;;;;12.00;7.80;;;;;;;3.06;75.16;96819.22;5072806;28;20328;-77
2023/03/07 04:10:09;;;;;;;12.23;7.87;;;;;;;3.09;75.01;96824.28;5072944;28;20215;-76
2023/03/07 04:12:36;;;;;;;11.87;7.37;;;;;;;3.06;75.19;96819.22;5073259;28;20213;-76
2023/03/07 04:15:02;;;;;;;10.37;7.13;;;;;;;3.09;75.21;96813.81;5072991;28;20674;-76
2023/03/07 04:17:29;;;;;;;14.27;8.33;;;;;;;3.11;75.46;96817.19;5072507;28;20715;-76
2023/03/07 04:19:55;;;;;;;12.97;8.27;;;;;;;3.13;75.63;96810.09;5072832;28;20238;-77
2023/03/07 04:22:21;;;;;;;13.57;7.83;;;;;;;3.13;75.73;96817.09;5072742;28;20209;-77
2023/03/07 04:24:49;;;;;;;12.93;7.73;;;;;;;3.18;76.37;96815.88;5072834;28;20256;-77
2023/03/07 04:27:16;;;;;;;13.77;8.40;;;;;;;3.19;75.87;96809.72;5072275;28;20716;-77
2023/03/07 04:29:43;;;;;;;11.97;7.77;;;;;;;3.26;75.19;96805.81;5073056;28;20303;-77
2023/03/07 04:32:09;;;;;;;12.33;7.63;;;;;;;3.32;75.14;96812.41;5072682;28;20220;-78
2023/03/07 04:34:35;;;;;;;13.67;8.77;;;;;;;3.32;74.92;96815.03;5072754;28;20219;-77
2023/03/07 04:37:02;;;;;;;11.83;7.63;;;;;;;3.39;74.94;96806.75;5072205;28;20238;-76
2023/03/07 04:39:28;;;;;;;14.07;8.50;;;;;;;3.42;75.30;96808.31;5072749;28;20230;-78
2023/03/07 04:41:56;;;;;;;14.37;8.00;;;;;;;3.44;75.16;96798.59;5072787;28;20214;-78
2023/03/07 04:44:23;;;;;;;13.37;8.40;;;;;;;3.46;75.21;96805.41;5072591;28;20297;-77
2023/03/07 04:46:49;;;;;;;12.97;8.20;;;;;;;3.47;75.40;96801.00;5072075;28;20239;-77
2023/03/07 04:49:16;;;;;;;12.93;7.90;;;;;;;3.49;75.58;96801.78;5072643;28;20220;-77
2023/03/07 04:51:42;;;;;;;11.50;7.47;;;;;;;3.49;75.80;96800.00;5071790;28;20210;-77
2023/03/07 04:54:08;;;;;;;12.30;9.03;;;;;;;3.52;75.18;96801.56;5072463;28;20409;-77
2023/03/07 04:56:35;;;;;;;12.40;8.10;;;;;;;3.52;75.39;96797.19;5072010;28;20328;-78
2023/03/07 04:59:03;;;;;;;13.17;7.80;;;;;;;3.45;75.09;96790.69;5072409;28;20240;-78
2023/03/07 05:01:29;;;;;;;11.13;8.00;;;;;;;3.45;74.95;96785.47;5072075;28;20229;-78
2023/03/07 05:03:56;;;;;;;11.00;7.47;;;;;;;3.44;74.66;96780.34;5072048;28;20601;-76
2023/03/07 05:06:22;;;;;;;14.17;7.90;;;;;;;3.42;74.32;96780.41;5071509;28;20302;-76
2023/03/07 05:08:49;;;;;;;14.60;8.27;;;;;;;3.45;74.51;96772.41;5071867;28;20371;-76
2023/03/07 05:11:16;;;;;;;12.77;8.10;;;;;;;3.43;74.80;96782.09;5071952;28;20213;-77
2023/03/07 05:13:43;;;;;;;13.00;7.87;;;;;;;3.41;74.28;96778.75;5071939;28;20602;-76
2023/03/07 05:16:10;;;;;;;12.47;7.63;;;;;;;3.38;74.01;96778.94;5071320;28;20337;-77
2023/03/07 05:18:37;;;;;;;11.50;7.47;;;;;;;3.35;74.46;96768.69;5071606;28;20230;-77
2023/03/07 05:21:04;;;;;;;13.03;7.90;;;;;;;3.32;74.40;96781.94;5071554;28;20213;-76
2023/03/07 05:23:30;;;;;;;14.20;8.43;;;;;;;3.32;74.51;96763.66;5071801;28;20211;-76
2023/03/07 05:25:56;;;;;;;12.97;8.33;;;;;;;3.37;74.36;96766.81;5071532;28;20623;-78
2023/03/07 05:28:24;;;;;;;13.60;7.90;;;;;;;3.40;74.22;96758.78;5071246;28;20210;-76
2023/03/07 05:30:52;;;;;;;10.37;7.80;;;;;;;3.44;74.42;96757.69;5071480;28;20210;-78
2023/03/07 05:33:20;;;;;;;13.03;8.13;;;;;;;3.37;73.85;96745.91;5071407;28;20213;-76
2023/03/07 05:35:47;;;;;;;14.20;8.00;;;;;;;3.40;74.43;96760.56;5071611;28;20209;-78
2023/03/07 05:38:13;;;;;;;11.87;8.30;;;;;;;3.38;74.19;96765.03;5071049;28;20203;-77
2023/03/07 05:40:40;;;;;;;11.90;7.73;;;;;;;3.39;74.02;96764.09;5071425;28;20259;-76
2023/03/07 05:43:07;;;;;;;12.20;7.67;;;;;;;3.45;73.83;96767.19;5071284;28;20206;-77
2023/03/07 05:45:33;;;;;;;10.70;7.40;;;;;;;3.40;73.74;96761.41;5071245;28;20213;-76
2023/03/07 05:48:00;;;;;;;13.60;8.10;;;;;;;3.44;73.46;96757.69;5070597;28;20241;-77
2023/03/07 05:50:27;;;;;;;12.07;8.30;;;;;;;3.42;73.10;96751.69;5071162;28;20221;-76
2023/03/07 05:52:54;;;;;;;12.77;7.97;;;;;;;3.42;73.44;96756.91;5071260;28;20222;-76
2023/03/07 05:55:20;;;;;;;14.27;8.67;;;;;;;3.35;73.63;96755.63;5071069;28;20219;-76
2023/03/07 05:57:47;;;;;;;11.13;7.50;;;;;;;3.38;73.65;96750.22;5070817;28;20239;-76
2023/03/07 06:00:14;;;;;;;12.70;7.60;;;;;;;3.41;73.25;96752.63;5071063;28;20222;-77
2023/03/07 06:02:41;;;;;;;11.20;7.70;;;;;;;3.38;73.70;96752.84;5070880;28;20249;-75
2023/03/07 06:05:08;;;;;;;12.37;7.30;;;;;;;3.42;73.74;96743.84;5070497;28;20217;-76
2023/03/07 06:07:36;;;;;;;12.47;7.63;;;;;;;3.47;73.48;96749.63;5070593;28;20250;-76
2023/03/07 06:10:03;;;;;;;14.37;7.90;;;;;;;3.48;72.87;96748.69;5070913;28;20217;-76
2023/03/07 06:12:29;;;;;;;14.23;8.63;;;;;;;3.44;72.67;96736.78;5070900;28;20215;-76
2023/03/07 06:14:56;;;;;;;13.17;7.57;;;;;;;3.44;71.98;96742.00;5070809;28;20211;-76
2023/03/07 06:17:22;;;;;;;12.20;7.80;;;;;;;3.48;71.90;96732.22;5070798;28;20242;-78
2023/03/07 06:19:49;;;;;;;12.77;7.70;;;;;;;3.46;71.96;96731.44;5071104;28;20229;-76
2023/03/07 06:22:18;;;;;;;11.83;7.83;;;;;;;3.50;71.88;96725.09;5070731;28;20210;-76
2023/03/07 06:24:45;;;;;;;11.03;7.27;;;;;;;3.44;71.95;96720.28;5070800;28;20219;-76
2023/03/07 06:27:12;;;;;;;12.03;7.90;;;;;;;3.47;71.73;96723.53;5070366;28;20226;-76
2023/03/07 06:29:38;;;;;;;12.43;8.23;;;;;;;3.43;71.83;96724.63;5070725;28;20564;-79
2023/03/07 06:32:05;;;;;;;13.37;7.93;;;;;;;3.49;71.73;96729.47;5070986;28;20229;-78
2023/03/07 06:34:32;;;;;;;11.00;6.67;;;;;;;3.50;71.56;96727.72;5070983;28;20210;-76
2023/03/07 06:36:58;;;;;;;12.67;7.70;;;;;;;3.53;71.58;96725.75;5070358;28;20242;-76
2023/03/07 06:39:26;;;;;;;13.37;7.57;;;;;;;3.54;71.31;96731.81;5070802;28;20211;-76
2023/03/07 06:41:53;;;;;;;12.77;7.20;;;;;;;3.56;70.92;96728.16;5070720;28;20215;-76
2023/03/07 06:44:20;;;;;;;12.67;8.00;;;;;;;3.57;71.07;96727.22;5070808;28;20688;-76
2023/03/07 06:46:46;;;;;;;11.03;7.37;;;;;;;3.54;71.55;96723.97;5081016;22;20258;-78
2023/03/07 06:49:13;;;;;;;13.10;7.57;;;;;;;3.59;70.93;96724.50;5051172;28;20214;-78
2023/03/07 06:51:40;;;;;;;11.40;7.23;;;;;;;3.62;70.53;96719.09;5050937;28;20213;-78
2023/03/07 06:54:06;;;;;;;10.90;7.40;;;;;;;3.68;70.48;96724.75;5050972;28;20205;-79
2023/03/07 06:56:34;;;;;;;10.80;7.20;;;;;;;3.72;70.47;96726.25;5050486;28;20238;-78
2023/03/07 06:59:02;;;;;;;10.90;7.50;;;;;;;3.76;69.94;96722.50;5050754;28;20301;-79
2023/03/07 07:01:28;;;;;;;10.87;7.50;;;;;;;3.80;70.25;96723.97;5050858;28;20207;-79
2023/03/07 07:03:56;;;;;;;12.50;7.57;;;;;;;3.80;69.92;96729.19;5050861;28;20583;-80
2023/03/07 07:06:22;;;;;;;10.33;6.70;;;;;;;3.84;69.61;96722.00;5050615;28;20239;-79
2023/03/07 07:08:49;;;;;;;9.93;6.37;;;;;;;3.87;69.48;96717.44;5050896;28;20211;-79
2023/03/07 07:11:15;;;;;;;12.63;6.93;;;;;;;3.86;69.99;96722.75;5050576;28;20684;-79
2023/03/07 07:13:42;;;;;;;13.43;7.27;;;;;;;3.87;70.13;96722.66;5050959;28;20219;-80
2023/03/07 07:16:10;;;;;;;10.90;7.20;;;;;;;4.01;69.48;96733.03;5052934;28;20352;-79
2023/03/07 07:18:36;;;;;;;11.17;7.60;;;;;;;4.08;69.29;96713.38;5054482;28;20206;-79
2023/03/07 07:21:04;;;;;;;13.17;7.33;;;;;;;4.10;68.74;96711.50;5054682;28;20696;-79
2023/03/07 07:23:30;;;;;;;10.97;7.27;;;;;;;4.27;68.71;96708.63;5054758;28;20207;-79
2023/03/07 07:25:56;;;;;;;13.90;7.73;;;;;;;4.28;67.88;96710.28;5054516;28;20701;-79
2023/03/07 07:28:23;;;;;;;11.90;7.40;;;;;;;4.35;67.91;96711.53;5054426;28;20229;-78
2023/03/07 07:30:50;;;;;;;10.27;6.47;;;;;;;4.51;67.12;96704.34;5054342;28;20207;-80
2023/03/07 07:33:18;;;;;;;12.87;7.13;;;;;;;4.62;66.86;96704.47;5054225;28;20207;-78
2023/03/07 07:35:45;;;;;;;10.87;7.50;;;;;;;4.72;67.02;96704.66;5054026;28;20696;-84
2023/03/07 07:38:12;;;;;;;11.67;7.27;;;;;;;4.81;66.76;96704.88;5052463;28;20232;-77
2023/03/07 07:40:39;;;;;;;11.63;6.57;;;;;;;4.82;66.40;96697.88;5051610;28;20207;-78
2023/03/07 07:43:05;;;;;;;10.50;6.97;;;;;;;4.79;66.61;96704.16;5053647;28;20623;-78
2023/03/07 07:45:32;;;;;;;9.93;7.40;;;;;;;4.83;66.73;96702.97;5054129;28;20208;-78
2023/03/07 07:47:58;;;;;;;9.37;6.47;;;;;;;4.78;65.54;96696.41;5051471;28;20295;-77
2023/03/07 07:50:26;;;;;;;10.93;6.97;;;;;;;4.87;65.77;96701.84;5052778;28;20211;-78
2023/03/07 07:52:54;;;;;;;10.27;7.00;;;;;;;4.85;65.98;96702.88;5054295;28;20219;-79
2023/03/07 07:55:20;;;;;;;10.33;6.53;;;;;;;4.99;65.80;96698.38;5053855;28;20189;-78
2023/03/07 07:57:47;;;;;;;10.83;7.00;;;;;;;5.01;64.94;96686.00;5051076;28;20243;-77
2023/03/07 08:00:18;;;;;;;11.80;6.80;;;;;;;5.09;64.84;96691.56;5052382;28;20219;-77
2023/03/07 08:02:44;;;;;;;9.73;6.57;;;;;;;5.24;64.14;96693.06;5053554;28;20208;-77
2023/03/07 08:05:11;;;;;;;8.70;5.77;;;;;;;5.28;64.20;96684.06;5051923;28;20678;-77
2023/03/07 08:07:39;;;;;;;10.13;6.67;;;;;;;5.30;64.22;96687.41;5050937;28;20293;-77
2023/03/07 08:10:07;;;;;;;10.87;6.73;;;;;;;5.34;63.55;96683.63;5054565;28;20219;-77
2023/03/07 08:12:33;;;;;;;11.07;6.93;;;;;;;5.40;63.56;96677.94;5054811;28;20206;-77
2023/03/07 08:15:00;;;;;;;9.93;6.43;;;;;;;5.34;63.79;96681.00;5051968;28;20211;-77
2023/03/07 08:17:28;;;;;;;11.33;6.93;;;;;;;5.24;63.28;96677.34;5051078;28;20235;-77
2023/03/07 08:19:54;;;;;;;11.20;7.30;;;;;;;5.30;62.66;96678.69;5053193;28;20459;-77
2023/03/07 08:22:20;;;;;;;10.23;6.40;;;;;;;5.27;62.51;96671.91;5051843;28;20264;-77
2023/03/07 08:24:49;;;;;;;11.80;7.35;;;;;;;5.30;62.20;96666.44;5052835;28;20432;-80
2023/03/07 08:27:16;;;;;;;9.53;6.57;;;;;;;5.40;62.30;96667.47;5052254;28;20293;-82
2023/03/07 08:29:42;;;;;;;10.53;7.17;;;;;;;5.48;62.56;96669.53;5052783;28;20216;-82
2023/03/07 08:32:09;;;;;;;10.17;6.80;;;;;;;5.52;62.35;96669.22;5042722;28;20205;-80
2023/03/07 08:34:35;;;;;;;11.57;6.57;;;;;;;5.61;61.97;96659.84;5052205;28;20700;-81
2023/03/07 08:37:02;;;;;;;8.67;5.97;;;;;;;5.69;61.49;96658.31;5052210;28;20232;-81
2023/03/07 08:39:28;;;;;;;10.03;6.50;;;;;;;5.76;61.13;96654.31;5052173;28;20702;-81
2023/03/07 08:41:56;;;;;;;9.93;6.50;;;;;;;5.77;60.61;96649.91;5052299;28;20217;-79
2023/03/07 08:44:23;;;;;;;11.47;6.60;;;;;;;5.96;60.34;96651.09;5052314;28;20238;-79
2023/03/07 08:46:49;;;;;;;11.40;5.97;;;;;;;5.96;60.01;96643.22;5051950;28;20261;-78
2023/03/07 08:49:16;;;;;;;9.73;6.47;;;;;;;6.06;59.96;96641.59;5052054;28;20212;-77
2023/03/07 08:51:42;;;;;;;9.93;6.77;;;;;;;5.99;60.13;96637.72;5052248;28;20208;-83
2023/03/07 08:54:08;;;;;;;9.67;6.60;;;;;;;5.99;60.21;96648.22;5052317;28;20205;-82
2023/03/07 08:56:35;;;;;;;9.90;6.80;;;;;;;6.06;61.06;96646.84;5052192;28;20576;-85
2023/03/07 08:59:03;;;;;;;9.13;6.57;;;;;;;6.12;60.43;96641.09;5052089;28;20222;-90
2023/03/07 09:01:29;;;;;;;10.37;6.23;;;;;;;6.16;59.63;96626.81;5052345;28;20209;-91
2023/03/07 09:03:56;;;;;;;10.00;6.80;;;;;;;6.30;59.75;96628.41;5052159;28;20208;-85
2023/03/07 09:06:22;;;;;;;9.00;7.23;;;;;;;6.40;60.37;96635.47;5051234;28;20242;-85
2023/03/07 09:08:50;;;;;;;9.17;6.47;;;;;;;6.37;58.55;96622.59;5051870;28;20204;-85
2023/03/07 09:11:17;;;;;;;10.57;6.00;;;;;;;6.12;57.67;96614.88;5051359;28;20265;-86
2023/03/07 09:13:44;;;;;;;9.33;6.03;;;;;;;6.07;58.31;96609.19;5051683;28;20223;-86
2023/03/07 09:16:12;;;;;;;9.40;6.10;;;;;;;6.04;57.75;96606.75;5051207;28;20215;-87
2023/03/07 09:18:39;;;;;;;9.07;6.10;;;;;;;6.13;58.91;96613.97;5051638;28;20733;-85
2023/03/07 09:21:06;;;;;;;8.20;5.57;;;;;;;6.25;58.19;96609.56;5052801;28;20219;-87
2023/03/07 09:23:33;;;;;;;9.73;6.23;;;;;;;6.24;57.35;96592.97;5049385;28;20209;-85
2023/03/07 09:26:00;;;;;;;7.13;5.17;;;;;;;6.24;56.04;96586.91;5051843;28;20209;-86
2023/03/07 09:28:27;;;;;;;8.40;5.83;;;;;;;6.29;56.59;96580.34;5052330;28;20230;-91
2023/03/07 09:30:53;;;;;;;11.10;5.60;;;;;;;6.40;55.82;96577.72;5050610;28;20204;-85
2023/03/07 09:33:21;;;;;;;7.33;5.40;;;;;;;6.37;54.99;96570.13;5043494;28;20212;-83
2023/03/07 09:35:48;;;;;;;10.20;5.50;;;;;;;6.30;54.16;96571.50;5051294;28;20212;-83
2023/03/07 09:38:15;;;;;;;9.23;5.67;;;;;;;6.50;54.98;96589.19;5050384;28;20256;-83
2023/03/07 09:40:45;;;;;;;7.10;5.17;;;;;;;6.57;54.30;96576.41;5050773;28;20207;-83
2023/03/07 09:43:18;;;;;;;9.77;5.63;;;;;;;6.40;53.34;96567.25;5050751;28;20210;-88
2023/03/07 09:45:51;;;;;;;9.27;4.93;;;;;;;6.45;53.38;96567.72;5051381;28;20212;-86
2023/03/07 09:48:49;;;;;;;8.83;5.17;;;;;;;6.46;53.10;96564.13;5050666;28;20235;-85
2023/03/07 09:51:18;;;;;;;7.90;5.10;;;;;;;6.54;53.73;96576.69;5051329;28;20193;-85
2023/03/07 09:53:49;;;;;;;6.45;5.28;;;;;;;6.68;54.13;96581.69;5050802;28;20443;-85
2023/03/07 09:56:22;;;;;;;7.70;5.10;;;;;;;6.58;53.07;96565.81;5050846;28;20226;-85
2023/03/07 09:58:54;;;;;;;6.27;4.23;;;;;;;6.56;52.15;96546.75;5051053;28;20238;-84
2023/03/07 10:01:24;;;;;;;8.93;4.67;;;;;;;6.48;52.71;96556.97;5050396;28;20210;-84
2023/03/07 10:03:59;;;;;;;8.07;4.60;;;;;;;6.46;51.82;96544.91;5050589;28;20687;-85
2023/03/07 10:06:30;;;;;;;6.57;4.90;;;;;;;6.48;52.70;96559.59;5050452;28;20235;-86
2023/03/07 10:08:59;;;;;;;9.70;5.30;;;;;;;6.55;53.73;96565.22;5053666;28;20253;-86
2023/03/07 10:11:38;;;;;;;8.57;4.83;;;;;;;6.54;53.48;96574.88;5070184;28;20218;-85
2023/03/07 10:14:28;;;;;;;8.30;4.97;;;;;;;6.38;52.72;96548.16;5070591;28;20215;-86
2023/03/07 10:17:03;;;;;;;6.83;4.40;;;;;;;6.28;53.38;96551.63;5070026;28;20236;-85
2023/03/07 10:19:37;;;;;;;6.87;4.77;;;;;;;6.22;52.95;96555.53;5070399;28;20291;-86
2023/03/07 10:22:12;;;;;;;6.93;4.53;;;;;;;6.24;52.90;96552.81;5070669;28;20208;-85
2023/03/07 10:24:49;;;;;;;6.30;4.23;;;;;;;6.20;53.56;96554.84;5070685;28;20233;-85
2023/03/07 10:27:17;;;;;;;6.55;5.18;;;;;;;6.16;53.38;96552.56;5069862;28;20430;-91
2023/03/07 10:29:47;;;;;;;12.20;4.97;;;;;;;6.10;53.83;96564.34;5072158;28;20222;-90
2023/03/07 10:32:22;;;;;;;7.00;4.57;;;;;;;5.94;52.87;96545.50;5071284;28;20204;-90
2023/03/07 10:34:58;;;;;;;5.97;4.67;;;;;;;6.08;53.78;96561.00;5071262;28;20302;-88
2023/03/07 10:37:36;;;;;;;6.37;4.40;;;;;;;6.00;54.00;96546.81;5070382;28;20704;-86
2023/03/07 10:40:03;;;;;;;5.57;3.80;;;;;;;5.92;52.83;96538.69;5070981;28;20203;-85
2023/03/07 10:42:34;;;;;;;5.67;4.40;;;;;;;6.06;53.10;96549.81;5071046;28;20208;-85
2023/03/07 10:45:01;;;;;;;4.97;4.03;;;;;;;6.06;53.82;96556.84;5070934;28;20670;-84
2023/03/07 10:47:29;;;;;;;7.50;4.87;;;;;;;5.96;54.70;96561.09;5070292;28;20240;-81
2023/03/07 10:50:06;;;;;;;8.70;4.80;;;;;;;5.98;54.91;96557.41;5071471;28;20433;-81
2023/03/07 10:52:35;;;;;;;6.30;4.67;;;;;;;5.92;55.01;96559.69;5075154;28;20209;-93
2023/03/07 10:55:35;;;;;;;6.73;4.90;;;;;;;5.86;54.97;96558.34;5075071;28;20214;-82
2023/03/07 10:58:20;;;;;;;7.87;4.90;;;;;;;5.80;54.70;96556.16;5072856;28;20608;-82
2023/03/07 11:00:59;;;;;;;7.70;5.13;;;;;;;5.81;55.80;96563.09;5072885;28;20228;-81
2023/03/07 11:03:30;;;;;;;7.97;4.83;;;;;;;5.78;55.13;96558.06;5074018;28;20214;-82
2023/03/07 11:05:58;;;;;;;7.87;5.40;;;;;;;5.73;55.09;96557.56;5073979;28;20451;-82
2023/03/07 11:08:30;;;;;;;6.13;4.50;;;;;;;5.78;54.96;96550.19;5052358;28;20726;-82
2023/03/07 11:10:56;;;;;;;5.97;4.13;;;;;;;5.81;55.11;96557.03;5035446;28;20212;-82
2023/03/07 11:13:24;;;;;;;8.10;5.03;;;;;;;5.74;53.63;96533.00;5033638;28;20219;-82
2023/03/07 11:15:51;;;;;;;9.53;5.93;;;;;;;5.78;54.83;96542.31;5033968;28;20232;-82
2023/03/07 11:18:28;;;;;;;7.97;5.10;;;;;;;5.83;53.20;96528.91;5033303;28;20253;-81
2023/03/07 11:20:55;;;;;;;7.27;5.20;;;;;;;5.70;53.23;96523.72;5034404;28;20216;-76
2023/03/07 11:23:25;;;;;;;8.10;5.63;;;;;;;5.71;53.30;96528.00;5034280;28;20210;-80
2023/03/07 11:25:53;;;;;;;8.90;5.23;;;;;;;5.72;53.51;96529.69;5034675;28;20212;-81
2023/03/07 11:28:27;;;;;;;10.90;5.17;;;;;;;5.66;53.88;96519.66;5034148;28;20353;-83
2023/03/07 11:31:04;;;;;;;7.10;5.17;;;;;;;5.75;53.80;96516.31;5034332;28;20318;-79
2023/03/07 11:33:44;;;;;;;9.17;5.47;;;;;;;5.80;52.91;96513.41;5034140;28;20741;-80
2023/03/07 11:36:15;;;;;;;7.50;4.90;;;;;;;5.79;51.87;96491.56;5034030;28;20239;-84
2023/03/07 11:38:53;;;;;;;7.83;5.40;;;;;;;5.82;53.06;96506.25;5034280;28;20235;-82
2023/03/07 11:41:26;;;;;;;6.23;4.40;;;;;;;5.86;52.24;96500.66;5034211;28;20213;-82